Time;durP1;ratioP1;P1;durP2;ratioP2;P2;SDS_P1;SDS_P2;PMS_P1;PMS_P2;Temp;Humidity;BMP_temperature;BMP_pressure;BME280_temperature;BME280_humidity;BME280_pressure;Samples;Min_cycle;Max_cycle;Signal;HPM_P1;HPM_P2
2024/01/22 00:00:38;;;;;;;13.43;4.60;;;6.90;99.90;;;;;;5075423;28;20121;-65
2024/01/22 00:03:04;;;;;;;9.40;5.53;;;6.90;99.90;;;;;;5075503;28;20410;-65
2024/01/22 00:05:29;;;;;;;9.50;5.80;;;6.90;99.90;;;;;;5059412;28;20761;-65
2024/01/22 00:07:55;;;;;;;10.07;5.90;;;7.00;99.90;;;;;;5073323;28;20419;-65
2024/01/22 00:10:21;;;;;;;9.27;5.60;;;7.00;99.90;;;;;;5075038;28;20454;-65
2024/01/22 00:12:47;;;;;;;10.47;6.13;;;7.00;99.90;;;;;;5043753;28;20511;-65
2024/01/22 00:15:12;;;;;;;8.13;5.55;;;7.00;99.90;;;;;;5058609;28;20493;-65
2024/01/22 00:17:38;;;;;;;8.93;5.50;;;7.00;99.90;;;;;;5058425;28;20039;-65
2024/01/22 00:20:04;;;;;;;9.02;5.80;;;7.00;99.90;;;;;;5077552;28;20527;-65
2024/01/22 00:22:30;;;;;;;7.22;5.00;;;7.00;99.90;;;;;;5075448;28;20041;-65
2024/01/22 00:24:56;;;;;;;9.40;5.32;;;7.00;99.90;;;;;;5071392;28;20056;-65
2024/01/22 00:27:22;;;;;;;6.15;4.97;;;7.10;99.90;;;;;;5076128;28;20431;-65
2024/01/22 00:29:47;;;;;;;9.27;5.67;;;7.20;99.90;;;;;;5073630;28;20796;-65
2024/01/22 00:32:13;;;;;;;8.35;5.20;;;7.20;99.90;;;;;;5079488;28;20409;-66
2024/01/22 00:34:39;;;;;;;8.95;5.22;;;7.30;99.90;;;;;;5075167;28;20506;-66
2024/01/22 00:37:05;;;;;;;9.60;5.75;;;7.30;99.90;;;;;;5018596;28;20407;-66
2024/01/22 00:39:31;;;;;;;8.40;5.40;;;7.30;99.90;;;;;;5101655;27;20407;-65
2024/01/22 00:41:57;;;;;;;7.80;5.65;;;7.30;99.90;;;;;;5077543;28;20486;-66
2024/01/22 00:44:23;;;;;;;8.50;5.40;;;7.40;99.90;;;;;;5072485;28;20502;-65
2024/01/22 00:46:49;;;;;;;7.82;5.10;;;7.30;99.90;;;;;;5057166;28;20407;-66
2024/01/22 00:49:15;;;;;;;10.38;5.38;;;7.30;99.90;;;;;;5070907;28;20976;-66
2024/01/22 00:51:41;;;;;;;7.20;5.20;;;7.20;99.90;;;;;;5072891;28;20454;-65
2024/01/22 00:54:06;;;;;;;8.85;5.15;;;7.30;99.90;;;;;;5054261;28;20429;-65
2024/01/22 00:56:33;;;;;;;7.50;4.90;;;7.30;99.90;;;;;;5076708;28;20760;-66
2024/01/22 00:58:59;;;;;;;7.28;4.80;;;7.40;99.90;;;;;;5072957;28;20395;-66
2024/01/22 01:01:25;;;;;;;7.10;4.70;;;7.50;99.90;;;;;;5077321;28;20536;-65
2024/01/22 01:03:51;;;;;;;6.60;4.80;;;7.50;99.90;;;;;;5070086;28;20891;-65
2024/01/22 01:06:16;;;;;;;6.07;4.50;;;7.50;99.90;;;;;;5076204;28;20396;-66
2024/01/22 01:08:42;;;;;;;6.70;4.57;;;7.60;99.90;;;;;;5056082;28;20487;-66
2024/01/22 01:11:08;;;;;;;7.47;4.55;;;7.60;99.90;;;;;;5077343;28;20386;-66
2024/01/22 01:13:34;;;;;;;6.00;4.33;;;7.70;99.90;;;;;;5069481;28;20933;-66
2024/01/22 01:16:00;;;;;;;6.55;4.60;;;7.70;99.90;;;;;;5074279;28;20391;-66
2024/01/22 01:18:26;;;;;;;7.13;4.53;;;7.70;99.90;;;;;;5037028;28;20723;-66
2024/01/22 01:20:52;;;;;;;6.40;4.40;;;7.80;99.90;;;;;;5049458;28;20935;-66
2024/01/22 01:23:17;;;;;;;8.40;4.43;;;7.70;99.90;;;;;;5072016;28;20097;-67
2024/01/22 01:25:43;;;;;;;8.52;4.57;;;7.80;99.90;;;;;;5076487;28;20127;-66
2024/01/22 01:28:09;;;;;;;6.63;4.07;;;7.70;99.90;;;;;;5075257;28;20224;-66
2024/01/22 01:30:35;;;;;;;5.72;4.40;;;7.70;99.90;;;;;;5080401;28;20112;-66
2024/01/22 01:33:00;;;;;;;7.90;4.50;;;7.70;99.90;;;;;;5056973;28;20466;-66
2024/01/22 01:35:26;;;;;;;7.13;4.25;;;7.70;99.90;;;;;;5072835;28;20045;-65
2024/01/22 01:37:52;;;;;;;6.43;4.47;;;7.80;99.90;;;;;;5073493;28;20075;-66
2024/01/22 01:40:18;;;;;;;5.55;4.47;;;7.80;99.90;;;;;;5078071;28;20032;-66
2024/01/22 01:42:44;;;;;;;5.93;4.13;;;7.80;99.90;;;;;;5076745;28;20051;-66
2024/01/22 01:45:14;;;;;;;6.72;4.45;;;7.70;99.90;;;;;;5077133;28;20055;-66
2024/01/22 01:47:42;;;;;;;5.57;4.32;;;7.70;99.90;;;;;;5073306;28;20043;-66
2024/01/22 01:50:09;;;;;;;6.00;4.15;;;7.70;99.90;;;;;;5072484;28;20099;-65
2024/01/22 01:52:36;;;;;;;5.38;4.20;;;7.90;99.90;;;;;;5072544;28;20104;-65
2024/01/22 01:55:02;;;;;;;6.30;4.15;;;8.00;99.90;;;;;;5074759;28;20047;-66
2024/01/22 01:57:28;;;;;;;6.80;4.65;;;8.00;99.90;;;;;;5068161;28;20120;-66
2024/01/22 01:59:55;;;;;;;7.32;4.05;;;8.00;99.90;;;;;;5073643;28;20040;-66
2024/01/22 02:02:20;;;;;;;4.88;3.92;;;8.00;99.90;;;;;;5069748;28;20504;-66
2024/01/22 02:04:46;;;;;;;7.25;4.57;;;8.00;99.90;;;;;;5076304;28;20043;-66
2024/01/22 02:07:12;;;;;;;7.15;4.80;;;7.90;99.90;;;;;;5074432;28;20036;-66
2024/01/22 02:09:46;;;;;;;5.78;4.57;;;7.90;99.90;;;;;;5072483;28;20032;-66
2024/01/22 02:12:11;;;;;;;6.53;4.20;;;8.00;99.90;;;;;;5070453;28;20036;-66
2024/01/22 02:14:37;;;;;;;5.93;4.57;;;8.00;99.90;;;;;;5075887;28;20457;-66
2024/01/22 02:17:03;;;;;;;;;;;8.00;99.90;;;;;;5067543;28;20181;-67
2024/01/22 02:19:28;;;;;;;;;;;8.00;99.90;;;;;;5069865;28;19928;-67
2024/01/22 02:21:54;;;;;;;;;;;8.00;99.90;;;;;;5068995;28;20492;-66
2024/01/22 02:24:20;;;;;;;;;;;8.00;99.90;;;;;;5067292;28;19922;-66
2024/01/22 02:26:45;;;;;;;;;;;7.90;99.90;;;;;;5070019;28;19921;-66
2024/01/22 02:29:11;;;;;;;;;;;7.90;99.90;;;;;;5069915;28;20373;-66
2024/01/22 02:31:36;;;;;;;;;;;8.00;99.90;;;;;;5071071;28;19921;-66
2024/01/22 02:34:02;;;;;;;;;;;7.90;99.90;;;;;;5072780;28;19921;-66
2024/01/22 02:36:28;;;;;;;;;;;7.90;99.90;;;;;;5081138;28;19977;-66
2024/01/22 02:38:53;;;;;;;;;;;8.00;99.90;;;;;;5081165;28;19917;-65
2024/01/22 02:41:19;;;;;;;;;;;8.00;99.90;;;;;;5081389;28;19916;-65
2024/01/22 02:43:44;;;;;;;;;;;8.00;99.90;;;;;;5078379;28;19916;-65
2024/01/22 02:46:10;;;;;;;;;;;8.00;99.90;;;;;;5081397;28;19995;-66
2024/01/22 02:48:35;;;;;;;;;;;8.00;99.90;;;;;;5075999;28;19924;-66
2024/01/22 02:51:01;;;;;;;;;;;8.00;99.90;;;;;;5076497;28;19923;-66
2024/01/22 02:53:27;;;;;;;;;;;8.00;99.90;;;;;;5078133;28;19943;-67
2024/01/22 02:55:52;;;;;;;;;;;8.00;99.90;;;;;;5080311;28;19955;-66
2024/01/22 02:58:18;;;;;;;;;;;8.00;99.90;;;;;;5070900;28;20227;-66
2024/01/22 03:00:44;;;;;;;;;;;8.00;99.90;;;;;;5077573;28;19916;-65
2024/01/22 03:03:09;;;;;;;;;;;8.00;99.90;;;;;;5078133;28;19924;-65
2024/01/22 03:05:35;;;;;;;8.18;4.65;;;8.00;99.90;;;;;;5080910;28;19916;-66
2024/01/22 03:08:00;;;;;;;6.03;4.50;;;8.00;99.90;;;;;;5078194;28;20040;-66
2024/01/22 03:10:26;;;;;;;8.18;4.80;;;8.00;99.90;;;;;;5072819;28;20122;-66
2024/01/22 03:12:52;;;;;;;7.35;4.82;;;8.00;99.90;;;;;;5077982;28;20048;-66
2024/01/22 03:15:18;;;;;;;6.80;4.95;;;8.00;99.90;;;;;;5075821;28;20024;-66
2024/01/22 03:17:43;;;;;;;9.27;4.88;;;8.00;99.90;;;;;;5080796;28;20478;-65
2024/01/22 03:20:10;;;;;;;9.43;4.57;;;8.00;99.90;;;;;;5081571;28;20040;-66
2024/01/22 03:22:36;;;;;;;5.65;4.57;;;8.00;99.90;;;;;;5080722;28;20148;-66
2024/01/22 03:25:02;;;;;;;6.60;4.35;;;8.00;99.90;;;;;;5075221;28;20105;-65
2024/01/22 03:27:28;;;;;;;6.95;4.65;;;8.00;99.90;;;;;;5053656;28;20490;-66
2024/01/22 03:29:54;;;;;;;7.30;5.03;;;8.00;99.90;;;;;;5060038;28;20182;-65
2024/01/22 03:32:19;;;;;;;7.82;4.85;;;8.10;99.90;;;;;;5077905;28;20412;-66
2024/01/22 03:34:45;;;;;;;9.35;4.75;;;8.00;99.90;;;;;;5057851;28;20203;-66
2024/01/22 03:37:11;;;;;;;9.38;4.90;;;8.00;99.90;;;;;;5048523;28;20066;-66
2024/01/22 03:39:36;;;;;;;8.52;5.15;;;8.00;99.90;;;;;;5075970;28;20036;-66
2024/01/22 03:42:02;;;;;;;8.35;4.95;;;8.00;99.90;;;;;;5083500;28;20515;-66
2024/01/22 03:44:28;;;;;;;6.80;4.53;;;8.00;99.90;;;;;;5085999;28;20038;-66
2024/01/22 03:46:54;;;;;;;8.88;5.22;;;8.00;99.90;;;;;;5079775;28;20477;-66
2024/01/22 03:49:19;;;;;;;6.90;4.93;;;8.00;99.90;;;;;;5062200;28;20403;-65
2024/01/22 03:51:45;;;;;;;8.02;5.03;;;8.10;99.90;;;;;;5082087;28;20494;-65
2024/01/22 03:54:11;;;;;;;6.85;5.15;;;8.10;99.90;;;;;;5065616;28;20498;-65
2024/01/22 03:56:37;;;;;;;6.43;4.37;;;8.10;99.90;;;;;;5080073;28;20493;-66
2024/01/22 03:59:03;;;;;;;7.03;4.72;;;8.20;99.90;;;;;;5083447;28;20940;-66
2024/01/22 04:01:28;;;;;;;7.38;4.85;;;8.10;99.90;;;;;;5076180;28;20438;-66
2024/01/22 04:03:54;;;;;;;6.73;5.00;;;8.20;99.90;;;;;;5077824;28;20481;-66
2024/01/22 04:06:20;;;;;;;7.45;4.88;;;8.20;99.90;;;;;;5084294;28;20298;-66
2024/01/22 04:08:46;;;;;;;6.97;4.50;;;8.10;99.90;;;;;;5080925;28;20046;-66
2024/01/22 04:11:11;;;;;;;5.45;4.40;;;8.10;99.90;;;;;;5071183;28;20650;-65
2024/01/22 04:13:40;;;;;;;5.28;4.32;;;8.20;99.90;;;;;;5085144;28;20032;-66
2024/01/22 04:16:06;;;;;;;6.93;4.75;;;8.20;99.90;;;;;;5080673;28;20123;-66
2024/01/22 04:18:32;;;;;;;5.38;4.43;;;8.20;99.90;;;;;;5082043;28;20127;-66
2024/01/22 04:20:57;;;;;;;5.07;4.47;;;8.20;99.90;;;;;;5080155;28;20052;-66
2024/01/22 04:23:23;;;;;;;5.63;4.28;;;8.20;99.90;;;;;;5078832;28;20474;-66
2024/01/22 04:25:49;;;;;;;8.38;4.53;;;8.30;99.90;;;;;;5087494;28;20032;-66
2024/01/22 04:28:16;;;;;;;6.85;4.75;;;8.30;99.90;;;;;;5079253;28;20047;-66
2024/01/22 04:30:42;;;;;;;6.60;4.40;;;8.30;99.90;;;;;;5083715;28;20043;-66
2024/01/22 04:33:08;;;;;;;5.18;4.40;;;8.30;99.90;;;;;;5075119;28;20037;-66
2024/01/22 04:35:33;;;;;;;6.10;4.90;;;8.30;99.90;;;;;;5075739;28;20044;-66
2024/01/22 04:37:59;;;;;;;6.23;4.90;;;8.30;99.90;;;;;;5077127;28;20722;-66
2024/01/22 04:40:25;;;;;;;5.50;5.00;;;8.40;99.90;;;;;;5050688;28;20428;-66
2024/01/22 04:42:50;;;;;;;6.22;4.90;;;8.40;99.90;;;;;;5073695;28;20412;-65
2024/01/22 04:45:17;;;;;;;6.17;5.20;;;8.40;99.90;;;;;;5078514;28;20907;-66
2024/01/22 04:47:43;;;;;;;5.38;4.82;;;8.40;99.90;;;;;;5055822;28;20429;-66
2024/01/22 04:50:08;;;;;;;5.40;4.50;;;8.50;99.90;;;;;;5081640;28;20397;-66
2024/01/22 04:52:34;;;;;;;5.38;4.30;;;8.50;99.90;;;;;;5082505;28;20482;-65
2024/01/22 04:55:00;;;;;;;5.10;4.50;;;8.60;99.90;;;;;;5063497;28;20404;-65
2024/01/22 04:57:26;;;;;;;4.83;4.33;;;8.60;99.90;;;;;;5073401;28;20434;-66
2024/01/22 04:59:51;;;;;;;4.65;3.78;;;8.60;99.90;;;;;;5068298;28;20396;-66
2024/01/22 05:02:22;;;;;;;;;;;8.60;99.90;;;;;;5077567;28;20075;-66
2024/01/22 05:04:48;;;;;;;;;;;8.60;99.90;;;;;;5078495;28;19930;-67
2024/01/22 05:07:14;;;;;;;;;;;8.60;99.90;;;;;;5081929;28;20364;-66
2024/01/22 05:09:39;;;;;;;4.30;3.60;;;8.70;99.90;;;;;;5083642;28;19965;-66
2024/01/22 05:12:05;;;;;;;3.83;3.45;;;8.80;99.90;;;;;;5059948;28;20036;-66
2024/01/22 05:14:31;;;;;;;5.07;3.90;;;8.80;99.90;;;;;;5066306;28;20389;-66
2024/01/22 05:16:57;;;;;;;3.83;3.30;;;8.80;99.90;;;;;;5059978;28;20410;-66
2024/01/22 05:19:22;;;;;;;;;;;8.80;99.90;;;;;;5081881;28;20051;-66
2024/01/22 05:21:48;;;;;;;;;;;8.90;99.90;;;;;;5083418;28;19939;-66
2024/01/22 05:24:13;;;;;;;;;;;8.90;99.90;;;;;;5078758;28;20399;-66
2024/01/22 05:26:39;;;;;;;;;;;9.00;99.90;;;;;;5077338;28;19923;-66
2024/01/22 05:29:04;;;;;;;;;;;9.10;99.90;;;;;;5077024;28;19931;-66
2024/01/22 05:31:30;;;;;;;;;;;9.20;99.90;;;;;;5074061;28;20284;-66
2024/01/22 05:33:56;;;;;;;;;;;9.20;99.90;;;;;;5082891;28;19951;-66
2024/01/22 05:36:21;;;;;;;;;;;9.30;99.90;;;;;;5084456;28;19923;-66
2024/01/22 05:38:47;;;;;;;;;;;9.20;99.90;;;;;;5084065;28;20007;-66
2024/01/22 05:41:12;;;;;;;;;;;9.30;99.90;;;;;;5063954;28;20430;-66
2024/01/22 05:43:38;;;;;;;;;;;9.30;99.90;;;;;;5073147;28;20010;-66
2024/01/22 05:46:04;;;;;;;;;;;9.30;99.90;;;;;;5081917;28;19973;-66
2024/01/22 05:48:29;;;;;;;;;;;9.40;99.90;;;;;;5078820;28;19920;-66
2024/01/22 05:50:55;;;;;;;;;;;9.40;99.90;;;;;;5082664;28;19920;-66
2024/01/22 05:53:20;;;;;;;;;;;9.50;99.90;;;;;;5079731;28;19947;-66
2024/01/22 05:55:46;;;;;;;;;;;9.50;99.90;;;;;;5083064;28;19923;-66
2024/01/22 05:58:12;;;;;;;;;;;9.50;99.90;;;;;;5056354;28;19917;-66
2024/01/22 06:00:38;;;;;;;;;;;9.60;99.90;;;;;;5060552;28;20365;-66
2024/01/22 06:03:04;;;;;;;;;;;9.60;99.90;;;;;;5074826;28;19924;-66
2024/01/22 06:05:29;;;;;;;;;;;9.60;99.90;;;;;;5087282;28;20006;-67
2024/01/22 06:07:55;;;;;;;;;;;9.60;99.90;;;;;;5080513;28;19936;-64
2024/01/22 06:10:20;;;;;;;;;;;9.70;99.90;;;;;;5081710;28;19916;-64
2024/01/22 06:12:47;;;;;;;;;;;9.70;99.90;;;;;;5064923;28;19923;-64
2024/01/22 06:15:13;;;;;;;;;;;9.60;99.90;;;;;;5083122;28;20351;-64
2024/01/22 06:17:38;;;;;;;;;;;9.60;99.90;;;;;;5080220;28;20003;-64
2024/01/22 06:20:05;;;;;;;;;;;9.60;99.90;;;;;;5071584;28;19925;-64
2024/01/22 06:22:33;;;;;;;;;;;9.60;99.90;;;;;;5077652;28;20007;-64
2024/01/22 06:25:00;;;;;;;;;;;9.60;99.90;;;;;;5077837;28;19969;-64
2024/01/22 06:27:25;;;;;;;;;;;9.60;99.90;;;;;;5078172;28;19963;-64
2024/01/22 06:29:53;;;;;;;;;;;9.60;99.90;;;;;;5072086;28;19955;-64
2024/01/22 06:32:19;;;;;;;;;;;9.60;99.90;;;;;;5057351;28;19924;-64
2024/01/22 06:34:46;;;;;;;;;;;9.60;99.90;;;;;;5078692;28;20397;-63
2024/01/22 06:37:12;;;;;;;;;;;9.70;99.90;;;;;;5080859;28;19915;-64
2024/01/22 06:39:37;;;;;;;;;;;9.80;99.90;;;;;;5037369;28;19916;-63
2024/01/22 06:42:03;;;;;;;;;;;9.80;99.90;;;;;;5080453;28;19924;-64
2024/01/22 06:44:29;;;;;;;;;;;9.80;99.90;;;;;;5084962;28;20425;-63
2024/01/22 06:46:54;;;;;;;;;;;9.90;99.90;;;;;;5091767;28;19920;-64
2024/01/22 06:49:20;;;;;;;;;;;9.90;99.90;;;;;;5112410;28;20366;-63
2024/01/22 06:51:47;;;;;;;;;;;9.90;99.90;;;;;;5085012;28;20401;-64
2024/01/22 06:54:12;;;;;;;;;;;9.90;99.90;;;;;;5063687;28;20323;-64
2024/01/22 06:56:38;;;;;;;;;;;9.80;99.90;;;;;;5089834;28;19922;-64
2024/01/22 06:59:03;;;;;;;;;;;9.80;99.90;;;;;;5083290;28;19917;-63
2024/01/22 07:01:29;;;;;;;;;;;9.90;99.90;;;;;;5082051;28;20369;-65
2024/01/22 07:03:55;;;;;;;;;;;9.90;99.90;;;;;;5067286;28;19931;-65
2024/01/22 07:06:20;;;;;;;;;;;9.90;99.90;;;;;;5079549;28;19924;-65
2024/01/22 07:08:49;;;;;;;;;;;9.80;99.90;;;;;;5078648;28;19974;-65
2024/01/22 07:11:15;;;;;;;;;;;9.90;99.90;;;;;;5079907;28;19920;-65
2024/01/22 07:13:41;;;;;;;;;;;9.90;99.90;;;;;;5085639;28;19923;-65
2024/01/22 07:16:07;;;;;;;;;;;10.00;99.90;;;;;;5080807;28;19923;-65
2024/01/22 07:18:33;;;;;;;;;;;9.90;99.90;;;;;;5084478;28;20014;-65
2024/01/22 07:20:59;;;;;;;;;;;9.90;99.90;;;;;;5079080;28;19916;-65
2024/01/22 07:23:25;;;;;;;;;;;10.00;99.90;;;;;;5079477;28;19976;-66
2024/01/22 07:25:50;;;;;;;;;;;10.00;99.90;;;;;;5081108;28;19920;-65
2024/01/22 07:28:16;;;;;;;;;;;10.00;99.90;;;;;;5080835;28;19923;-65
2024/01/22 07:30:42;;;;;;;;;;;10.00;99.90;;;;;;5081127;28;19927;-65
2024/01/22 07:33:08;;;;;;;;;;;10.10;99.90;;;;;;5063955;28;20384;-65
2024/01/22 07:35:34;;;;;;;;;;;10.10;99.90;;;;;;5073912;28;20011;-67
2024/01/22 07:37:59;;;;;;;;;;;10.20;99.90;;;;;;5071227;28;19959;-65
2024/01/22 07:40:25;;;;;;;;;;;10.30;99.90;;;;;;5072238;28;19917;-65
2024/01/22 07:42:52;;;;;;;;;;;10.30;99.90;;;;;;5071762;28;19974;-65
2024/01/22 07:45:17;;;;;;;;;;;10.30;99.90;;;;;;5071742;28;19932;-65
2024/01/22 07:47:43;;;;;;;;;;;10.30;99.90;;;;;;5067094;28;19981;-66
2024/01/22 07:50:13;;;;;;;;;;;10.30;99.90;;;;;;5070138;28;20177;-65
2024/01/22 07:52:39;;;;;;;;;;;10.40;99.90;;;;;;5062814;28;20011;-65
2024/01/22 07:55:05;;;;;;;;;;;10.50;99.90;;;;;;5067412;28;20003;-65
2024/01/22 07:57:31;;;;;;;;;;;10.50;99.90;;;;;;5071833;28;19920;-65
2024/01/22 07:59:57;;;;;;;;;;;10.40;99.90;;;;;;5055583;28;20440;-65
2024/01/22 08:02:22;;;;;;;;;;;10.40;99.90;;;;;;5036314;28;19977;-65
2024/01/22 08:04:48;;;;;;;;;;;10.40;99.90;;;;;;5072072;28;19924;-65
2024/01/22 08:07:14;;;;;;;;;;;10.50;99.90;;;;;;5076344;28;19932;-65
2024/01/22 08:09:40;;;;;;;;;;;10.50;99.90;;;;;;5074948;28;21552;-65
2024/01/22 08:12:06;;;;;;;;;;;10.40;99.90;;;;;;5054458;28;20020;-65
2024/01/22 08:14:33;;;;;;;;;;;10.40;99.90;;;;;;5069862;28;20038;-65
2024/01/22 08:16:59;;;;;;;;;;;10.40;99.90;;;;;;5068432;28;20368;-65
2024/01/22 08:19:26;;;;;;;;;;;10.40;99.90;;;;;;5071120;28;20373;-65
2024/01/22 08:21:52;;;;;;;;;;;10.40;99.90;;;;;;5053174;28;20001;-65
2024/01/22 08:24:18;;;;;;;;;;;10.50;99.90;;;;;;5072800;28;19923;-65
2024/01/22 08:26:43;;;;;;;;;;;10.40;99.90;;;;;;5071786;28;21050;-65
2024/01/22 08:29:09;;;;;;;;;;;10.40;99.90;;;;;;5068674;28;20293;-65
2024/01/22 08:31:35;;;;;;;;;;;10.30;99.90;;;;;;5071584;28;19931;-65
2024/01/22 08:34:01;;;;;;;;;;;10.30;99.90;;;;;;5071680;28;19916;-65
2024/01/22 08:36:26;;;;;;;;;;;10.30;99.90;;;;;;5072259;28;20270;-64
2024/01/22 08:38:52;;;;;;;;;;;10.30;99.90;;;;;;5070074;28;19916;-65
2024/01/22 08:41:17;;;;;;;;;;;10.30;99.90;;;;;;5072909;28;20453;-65
2024/01/22 08:43:43;;;;;;;;;;;10.30;99.90;;;;;;5070020;28;19916;-66
2024/01/22 08:46:08;;;;;;;;;;;10.30;99.90;;;;;;5071895;28;20656;-65
2024/01/22 08:48:34;;;;;;;;;;;10.30;99.90;;;;;;5068058;28;19921;-66
2024/01/22 08:51:00;;;;;;;;;;;10.30;99.90;;;;;;5070080;28;19954;-66
2024/01/22 08:53:25;;;;;;;;;;;10.30;99.90;;;;;;5071605;28;19994;-66
2024/01/22 08:55:51;;;;;;;;;;;10.30;99.90;;;;;;5073042;28;20296;-66
2024/01/22 08:58:16;;;;;;;;;;;10.30;99.90;;;;;;5074366;28;20262;-65
2024/01/22 09:00:42;;;;;;;;;;;10.20;99.90;;;;;;5054471;28;20438;-66
2024/01/22 09:03:07;;;;;;;;;;;10.20;99.90;;;;;;5073627;28;19950;-66
2024/01/22 09:05:34;;;;;;;;;;;10.20;99.90;;;;;;5075758;28;20010;-66
2024/01/22 09:07:59;;;;;;;;;;;10.20;99.90;;;;;;5056309;28;19931;-66
2024/01/22 09:10:26;;;;;;;;;;;10.20;99.90;;;;;;5069555;28;20842;-66
2024/01/22 09:12:52;;;;;;;;;;;10.10;99.90;;;;;;5074280;28;19985;-66
2024/01/22 09:15:17;;;;;;;;;;;10.10;99.90;;;;;;5053282;28;19924;-66
2024/01/22 09:17:44;;;;;;;;;;;10.10;99.90;;;;;;5069639;28;19924;-66
2024/01/22 09:20:10;;;;;;;;;;;10.10;99.90;;;;;;5071558;28;19923;-66
2024/01/22 09:22:35;;;;;;;;;;;10.10;99.90;;;;;;5068214;28;20343;-66
2024/01/22 09:25:01;;;;;;;;;;;10.10;99.90;;;;;;5067897;28;19919;-65
2024/01/22 09:27:27;;;;;;;;;;;10.10;99.90;;;;;;5072893;28;20274;-66
2024/01/22 09:29:52;;;;;;;;;;;10.10;99.90;;;;;;5068074;28;19993;-66
2024/01/22 09:32:18;;;;;;;;;;;10.00;99.90;;;;;;5070815;28;19973;-66
2024/01/22 09:34:44;;;;;;;;;;;10.00;99.90;;;;;;5079497;28;19958;-66
2024/01/22 09:37:09;;;;;;;;;;;10.00;99.90;;;;;;5075354;28;20350;-67
2024/01/22 09:39:35;;;;;;;;;;;10.00;99.90;;;;;;5059568;28;19922;-65
2024/01/22 09:42:01;;;;;;;;;;;10.00;99.90;;;;;;5052828;28;20412;-66
2024/01/22 09:44:27;;;;;;;;;;;10.00;99.90;;;;;;5070372;28;19923;-66
2024/01/22 09:46:53;;;;;;;;;;;10.00;99.90;;;;;;5069644;28;19932;-66
2024/01/22 09:49:19;;;;;;;;;;;10.00;99.90;;;;;;5069638;28;19995;-66
2024/01/22 09:51:45;;;;;;;;;;;9.90;99.90;;;;;;5069616;28;20027;-66
2024/01/22 09:54:11;;;;;;;;;;;9.90;99.90;;;;;;5069760;28;20011;-66
2024/01/22 09:56:37;;;;;;;;;;;9.90;99.90;;;;;;5070778;28;20211;-66
2024/01/22 09:59:11;;;;;;;;;;;9.90;99.90;;;;;;5069515;28;19923;-66
2024/01/22 10:01:38;;;;;;;;;;;9.90;99.90;;;;;;5071074;28;19916;-66
2024/01/22 10:04:04;;;;;;;;;;;9.90;99.90;;;;;;5069538;28;19927;-66
2024/01/22 10:06:31;;;;;;;;;;;9.90;99.90;;;;;;5070880;28;19916;-66
2024/01/22 10:08:57;;;;;;;;;;;10.00;99.90;;;;;;5050007;28;19989;-66
2024/01/22 10:11:23;;;;;;;;;;;9.90;99.90;;;;;;5070067;28;20413;-66
2024/01/22 10:13:52;;;;;;;;;;;9.90;99.90;;;;;;5070716;28;19927;-66
2024/01/22 10:16:18;;;;;;;;;;;9.90;99.90;;;;;;5089064;28;19923;-66
2024/01/22 10:19:00;;;;;;;;;;;9.90;99.90;;;;;;5067577;28;19916;-66
2024/01/22 10:21:26;;;;;;;;;;;9.90;99.90;;;;;;5056968;28;19920;-66
2024/01/22 10:24:04;;;;;;;;;;;10.00;99.90;;;;;;5069867;28;19971;-66
2024/01/22 10:26:30;;;;;;;;;;;9.90;99.90;;;;;;5056697;28;19940;-66
2024/01/22 10:29:11;;;;;;;;;;;9.90;99.90;;;;;;5067757;28;20513;-66
2024/01/22 10:31:56;;;;;;;;;;;9.90;99.90;;;;;;5056249;28;20010;-66
2024/01/22 10:34:27;;;;;;;;;;;9.90;99.90;;;;;;5070713;28;20334;-66
2024/01/22 10:37:12;;;;;;;;;;;9.90;99.90;;;;;;5070485;28;19916;-66
2024/01/22 10:39:42;;;;;;;;;;;9.80;99.90;;;;;;5070109;28;19970;-66
2024/01/22 10:42:14;;;;;;;;;;;9.80;99.90;;;;;;5069231;28;19943;-66
2024/01/22 10:44:44;;;;;;;;;;;9.90;99.90;;;;;;5070595;28;19916;-66
2024/01/22 10:47:10;;;;;;;;;;;9.90;99.90;;;;;;5067788;28;19997;-66
2024/01/22 10:49:36;;;;;;;;;;;9.90;99.90;;;;;;5067798;28;21054;-66
2024/01/22 10:52:05;;;;;;;;;;;9.80;99.90;;;;;;5070221;28;20020;-66
2024/01/22 10:54:31;;;;;;;;;;;9.80;99.90;;;;;;5070488;28;19923;-66
2024/01/22 10:57:09;;;;;;;;;;;9.80;99.90;;;;;;5069706;28;20017;-66
2024/01/22 10:59:36;;;;;;;;;;;9.80;99.90;;;;;;5066094;28;19916;-66
2024/01/22 11:02:03;;;;;;;;;;;9.80;99.90;;;;;;5069082;28;20008;-66
2024/01/22 11:04:32;;;;;;;;;;;9.70;99.90;;;;;;5067316;28;20006;-66
2024/01/22 11:07:00;;;;;;;;;;;9.70;99.90;;;;;;5068915;28;20308;-66
2024/01/22 11:09:30;;;;;;;;;;;9.70;99.90;;;;;;5052217;28;19916;-66
2024/01/22 11:11:57;;;;;;;;;;;9.70;99.90;;;;;;5067373;28;19920;-66
2024/01/22 11:14:23;;;;;;;;;;;9.70;99.90;;;;;;5069156;28;20266;-66
2024/01/22 11:16:49;;;;;;;;;;;9.70;99.90;;;;;;5065145;28;19946;-66
2024/01/22 11:19:23;;;;;;;;;;;9.70;99.90;;;;;;5058115;28;19924;-66
2024/01/22 11:21:52;;;;;;;;;;;9.60;99.90;;;;;;5064735;28;19974;-66
2024/01/22 11:24:19;;;;;;;;;;;9.70;99.90;;;;;;5071058;28;19928;-66
2024/01/22 11:26:47;;;;;;;;;;;9.90;99.90;;;;;;5077676;28;19920;-66
2024/01/22 11:29:17;;;;;;;;;;;10.00;99.90;;;;;;5070535;28;19916;-66
2024/01/22 11:31:42;;;;;;;;;;;10.00;99.90;;;;;;5070600;28;19924;-66
2024/01/22 11:34:08;;;;;;;;;;;10.00;99.90;;;;;;5069671;28;19923;-66
2024/01/22 11:36:49;;;;;;;;;;;9.90;99.90;;;;;;5064817;28;20375;-66
2024/01/22 11:39:33;;;;;;;;;;;9.90;99.90;;;;;;5092782;28;20002;-66
2024/01/22 11:41:59;;;;;;;;;;;9.80;99.90;;;;;;5069779;28;19989;-66
2024/01/22 11:44:26;;;;;;;;;;;9.80;99.90;;;;;;5055706;28;20382;-66
2024/01/22 11:47:10;;;;;;;;;;;9.80;99.90;;;;;;5072575;28;20296;-66
2024/01/22 11:49:39;;;;;;;;;;;9.80;99.90;;;;;;5090996;27;19981;-66
2024/01/22 11:52:16;;;;;;;;;;;9.80;99.90;;;;;;5077150;28;19969;-65
2024/01/22 11:54:55;;;;;;;;;;;9.80;99.90;;;;;;5075135;28;20896;-66
2024/01/22 11:57:21;;;;;;;;;;;9.80;99.90;;;;;;5074413;28;19931;-66
2024/01/22 12:00:19;;;;;;;;;;;9.80;99.90;;;;;;5078902;28;19923;-66
2024/01/22 12:02:46;;;;;;;;;;;9.80;99.90;;;;;;5056792;28;19920;-66
2024/01/22 12:05:17;;;;;;;;;;;9.80;99.90;;;;;;5059147;28;19923;-66
2024/01/22 12:07:46;;;;;;;;;;;9.70;99.90;;;;;;5076387;28;19916;-66
2024/01/22 12:10:20;;;;;;;;;;;9.70;99.90;;;;;;5073993;28;19920;-65
2024/01/22 12:12:51;;;;;;;;;;;9.60;99.90;;;;;;5072308;28;19923;-66
2024/01/22 12:15:17;;;;;;;;;;;9.60;99.90;;;;;;5077223;28;19923;-66
2024/01/22 12:17:43;;;;;;;;;;;9.60;99.90;;;;;;5076100;28;19916;-66
2024/01/22 12:20:09;;;;;;;;;;;9.50;99.90;;;;;;5074686;28;20245;-66
2024/01/22 12:22:35;;;;;;;;;;;9.50;99.90;;;;;;5075578;28;19958;-65
2024/01/22 12:25:01;;;;;;;;;;;9.50;99.90;;;;;;5077964;28;19924;-66
2024/01/22 12:27:28;;;;;;;;;;;9.50;99.90;;;;;;5075575;28;20005;-66
2024/01/22 12:30:00;;;;;;;;;;;9.50;99.90;;;;;;5075547;28;19981;-66
2024/01/22 12:32:26;;;;;;;;;;;9.50;99.90;;;;;;5075674;28;19920;-66
2024/01/22 12:34:55;;;;;;;;;;;9.50;99.90;;;;;;5074237;28;20386;-66
2024/01/22 12:37:23;;;;;;;;;;;9.50;99.90;;;;;;5074568;28;19916;-66
2024/01/22 12:39:49;;;;;;;;;;;9.50;99.90;;;;;;5072131;28;19928;-66
2024/01/22 12:42:15;;;;;;;;;;;9.50;99.90;;;;;;5043935;28;20007;-66
2024/01/22 12:44:41;;;;;;;;;;;9.40;99.90;;;;;;5084401;27;19990;-66
2024/01/22 12:47:07;;;;;;;;;;;9.40;99.90;;;;;;5073376;28;20331;-66
2024/01/22 12:49:32;;;;;;;;;;;9.40;99.90;;;;;;5074388;28;19962;-66
2024/01/22 12:52:08;;;;;;;;;;;9.50;99.90;;;;;;5077234;28;19963;-66
2024/01/22 12:54:34;;;;;;;;;;;9.40;99.90;;;;;;5075697;28;19963;-66
2024/01/22 12:56:59;;;;;;;;;;;9.40;99.90;;;;;;5053886;28;19964;-66
2024/01/22 12:59:25;;;;;;;;;;;9.40;99.90;;;;;;5057212;28;19916;-66
2024/01/22 13:01:50;;;;;;;;;;;9.40;99.90;;;;;;5071884;28;20381;-66
2024/01/22 13:04:16;;;;;;;;;;;9.30;99.90;;;;;;5056781;28;19968;-66
2024/01/22 13:06:42;;;;;;;;;;;9.30;99.90;;;;;;5073679;28;20365;-66
2024/01/22 13:09:07;;;;;;;;;;;9.30;99.90;;;;;;5074710;28;19920;-66
2024/01/22 13:11:33;;;;;;;;;;;9.30;99.90;;;;;;5068216;28;19920;-66
2024/01/22 13:13:58;;;;;;;;;;;9.20;99.90;;;;;;5070910;28;19923;-66
2024/01/22 13:16:24;;;;;;;;;;;9.20;99.90;;;;;;5055462;28;19923;-66
2024/01/22 13:18:50;;;;;;;;;;;9.20;99.90;;;;;;5071570;28;20049;-66
2024/01/22 13:21:16;;;;;;;;;;;9.10;99.90;;;;;;5071689;28;20505;-66
2024/01/22 13:23:41;;;;;;;26.23;8.32;;;9.10;99.90;;;;;;5054049;28;19946;-67
2024/01/22 13:26:08;;;;;;;21.88;7.20;;;9.10;99.90;;;;;;5053282;28;20413;-66
2024/01/22 13:28:36;;;;;;;32.28;7.10;;;9.10;99.90;;;;;;5071594;28;20047;-66
2024/01/22 13:31:02;;;;;;;29.52;7.72;;;9.10;99.90;;;;;;5069150;28;20154;-65
2024/01/22 13:33:27;;;;;;;26.58;7.35;;;9.10;99.90;;;;;;5070434;28;20386;-65
2024/01/22 13:35:53;;;;;;;27.80;7.97;;;9.10;99.90;;;;;;5071243;28;20398;-66
2024/01/22 13:38:19;;;;;;;26.48;7.57;;;9.20;99.90;;;;;;5071660;28;20409;-65
2024/01/22 13:40:44;;;;;;;26.52;7.25;;;9.20;99.90;;;;;;5069535;28;20945;-65
2024/01/22 13:43:10;;;;;;;27.90;7.87;;;9.20;99.90;;;;;;5070845;28;20398;-66
2024/01/22 13:45:36;;;;;;;24.13;7.95;;;9.20;99.90;;;;;;5070788;28;20649;-65
2024/01/22 13:48:02;;;;;;;27.00;7.70;;;9.20;99.90;;;;;;5071385;28;20518;-66